sensor_id;sensor_type;location;lat;lon;timestamp;pressure;altitude;pressure_sealevel;temperature;humidity
27643;BME280;15053;48.618;10.024;2024-02-26T00:01:45;92473.59;;;5.43;88.76
27643;BME280;15053;48.618;10.024;2024-02-26T00:04:12;92466.63;;;5.43;88.26
27643;BME280;15053;48.618;10.024;2024-02-26T00:06:39;92468.75;;;5.41;89.06
27643;BME280;15053;48.618;10.024;2024-02-26T00:09:09;92474.50;;;5.38;88.70
27643;BME280;15053;48.618;10.024;2024-02-26T00:11:36;92466.44;;;5.31;89.15
27643;BME280;15053;48.618;10.024;2024-02-26T00:14:04;92470.38;;;5.28;88.84
27643;BME280;15053;48.618;10.024;2024-02-26T00:16:30;92457.47;;;5.28;89.82
27643;BME280;15053;48.618;10.024;2024-02-26T00:18:57;92472.03;;;5.33;89.29
27643;BME280;15053;48.618;10.024;2024-02-26T00:21:24;92474.03;;;5.36;89.43
27643;BME280;15053;48.618;10.024;2024-02-26T00:23:53;92471.00;;;5.34;89.50
27643;BME280;15053;48.618;10.024;2024-02-26T00:26:20;92470.84;;;5.39;89.71
27643;BME280;15053;48.618;10.024;2024-02-26T00:28:46;92459.31;;;5.36;89.46
27643;BME280;15053;48.618;10.024;2024-02-26T00:31:13;92464.47;;;5.36;90.05
27643;BME280;15053;48.618;10.024;2024-02-26T00:33:40;92467.38;;;5.35;90.14
27643;BME280;15053;48.618;10.024;2024-02-26T00:36:06;92473.41;;;5.30;90.18
27643;BME280;15053;48.618;10.024;2024-02-26T00:38:33;92471.13;;;5.29;90.12
27643;BME280;15053;48.618;10.024;2024-02-26T00:41:00;92478.69;;;5.25;90.69
27643;BME280;15053;48.618;10.024;2024-02-26T00:43:26;92480.22;;;5.26;90.49
27643;BME280;15053;48.618;10.024;2024-02-26T00:45:53;92482.50;;;5.28;90.62
27643;BME280;15053;48.618;10.024;2024-02-26T00:48:19;92480.41;;;5.30;90.42
27643;BME280;15053;48.618;10.024;2024-02-26T00:50:46;92479.63;;;5.29;90.09
27643;BME280;15053;48.618;10.024;2024-02-26T00:53:12;92472.19;;;5.28;89.99
27643;BME280;15053;48.618;10.024;2024-02-26T00:55:39;92477.34;;;5.28;90.15
27643;BME280;15053;48.618;10.024;2024-02-26T00:58:05;92482.81;;;5.26;90.40
27643;BME280;15053;48.618;10.024;2024-02-26T01:00:32;92484.63;;;5.26;91.00
27643;BME280;15053;48.618;10.024;2024-02-26T01:02:58;92474.75;;;5.28;89.71
27643;BME280;15053;48.618;10.024;2024-02-26T01:05:26;92477.94;;;5.25;90.47
27643;BME280;15053;48.618;10.024;2024-02-26T01:07:53;92464.44;;;5.28;90.90
27643;BME280;15053;48.618;10.024;2024-02-26T01:10:19;92466.25;;;5.27;90.25
27643;BME280;15053;48.618;10.024;2024-02-26T01:12:46;92469.91;;;5.26;91.09
27643;BME280;15053;48.618;10.024;2024-02-26T01:15:12;92453.34;;;5.27;90.67
27643;BME280;15053;48.618;10.024;2024-02-26T01:17:39;92456.09;;;5.31;90.40
27643;BME280;15053;48.618;10.024;2024-02-26T01:20:06;92462.03;;;5.31;90.81
27643;BME280;15053;48.618;10.024;2024-02-26T01:22:33;92457.63;;;5.32;90.95
27643;BME280;15053;48.618;10.024;2024-02-26T01:24:59;92457.50;;;5.37;90.53
27643;BME280;15053;48.618;10.024;2024-02-26T01:27:26;92453.97;;;5.33;89.59
27643;BME280;15053;48.618;10.024;2024-02-26T01:29:53;92449.88;;;5.32;89.76
27643;BME280;15053;48.618;10.024;2024-02-26T01:32:20;92447.13;;;5.28;89.64
27643;BME280;15053;48.618;10.024;2024-02-26T01:34:46;92437.25;;;5.22;89.59
27643;BME280;15053;48.618;10.024;2024-02-26T01:37:13;92440.31;;;5.24;90.49
27643;BME280;15053;48.618;10.024;2024-02-26T01:39:39;92448.31;;;5.22;90.23
27643;BME280;15053;48.618;10.024;2024-02-26T01:42:08;92439.34;;;5.20;90.31
27643;BME280;15053;48.618;10.024;2024-02-26T01:44:34;92435.56;;;5.17;90.25
27643;BME280;15053;48.618;10.024;2024-02-26T01:47:01;92434.78;;;5.17;90.25
27643;BME280;15053;48.618;10.024;2024-02-26T01:49:29;92439.94;;;5.17;89.96
27643;BME280;15053;48.618;10.024;2024-02-26T01:51:57;92435.56;;;5.17;90.46
27643;BME280;15053;48.618;10.024;2024-02-26T01:54:24;92436.78;;;5.20;90.55
27643;BME280;15053;48.618;10.024;2024-02-26T01:56:51;92433.16;;;5.21;90.75
27643;BME280;15053;48.618;10.024;2024-02-26T01:59:18;92430.44;;;5.26;90.52
27643;BME280;15053;48.618;10.024;2024-02-26T02:01:48;92440.16;;;5.29;90.50
27643;BME280;15053;48.618;10.024;2024-02-26T02:04:17;92436.38;;;5.26;89.99
27643;BME280;15053;48.618;10.024;2024-02-26T02:06:45;92443.66;;;5.33;89.67
27643;BME280;15053;48.618;10.024;2024-02-26T02:09:12;92449.75;;;5.37;89.80
27643;BME280;15053;48.618;10.024;2024-02-26T02:11:39;92454.31;;;5.40;89.48
27643;BME280;15053;48.618;10.024;2024-02-26T02:14:06;92443.84;;;5.45;89.47
27643;BME280;15053;48.618;10.024;2024-02-26T02:16:32;92451.47;;;5.50;89.54
27643;BME280;15053;48.618;10.024;2024-02-26T02:18:59;92442.34;;;5.53;88.84
27643;BME280;15053;48.618;10.024;2024-02-26T02:21:26;92437.38;;;5.56;88.60
27643;BME280;15053;48.618;10.024;2024-02-26T02:23:52;92430.66;;;5.55;89.01
27643;BME280;15053;48.618;10.024;2024-02-26T02:26:19;92443.75;;;5.59;88.53
27643;BME280;15053;48.618;10.024;2024-02-26T02:28:47;92440.41;;;5.58;87.96
27643;BME280;15053;48.618;10.024;2024-02-26T02:31:15;92447.09;;;5.59;88.39
27643;BME280;15053;48.618;10.024;2024-02-26T02:33:42;92446.16;;;5.55;88.21
27643;BME280;15053;48.618;10.024;2024-02-26T02:36:09;92454.97;;;5.54;88.67
27643;BME280;15053;48.618;10.024;2024-02-26T02:38:37;92456.66;;;5.59;87.57
27643;BME280;15053;48.618;10.024;2024-02-26T02:41:04;92468.50;;;5.60;87.62
27643;BME280;15053;48.618;10.024;2024-02-26T02:43:31;92462.00;;;5.62;88.39
27643;BME280;15053;48.618;10.024;2024-02-26T02:45:57;92472.00;;;5.64;87.87
27643;BME280;15053;48.618;10.024;2024-02-26T02:48:24;92467.59;;;5.64;86.81
27643;BME280;15053;48.618;10.024;2024-02-26T02:50:51;92456.38;;;5.60;87.03
27643;BME280;15053;48.618;10.024;2024-02-26T02:53:17;92465.63;;;5.61;87.49
27643;BME280;15053;48.618;10.024;2024-02-26T02:55:44;92462.00;;;5.62;87.58
27643;BME280;15053;48.618;10.024;2024-02-26T02:58:11;92468.19;;;5.61;87.52
27643;BME280;15053;48.618;10.024;2024-02-26T03:00:37;92464.25;;;5.64;87.81
27643;BME280;15053;48.618;10.024;2024-02-26T03:03:04;92464.25;;;5.64;87.45
27643;BME280;15053;48.618;10.024;2024-02-26T03:05:31;92459.84;;;5.64;87.34
27643;BME280;15053;48.618;10.024;2024-02-26T03:07:57;92451.50;;;5.67;86.84
27643;BME280;15053;48.618;10.024;2024-02-26T03:10:24;92463.97;;;5.65;87.10
27643;BME280;15053;48.618;10.024;2024-02-26T03:12:50;92466.06;;;5.63;87.17
27643;BME280;15053;48.618;10.024;2024-02-26T03:15:17;92467.31;;;5.66;86.88
27643;BME280;15053;48.618;10.024;2024-02-26T03:17:43;92462.00;;;5.62;86.71
27643;BME280;15053;48.618;10.024;2024-02-26T03:20:10;92470.00;;;5.61;87.67
27643;BME280;15053;48.618;10.024;2024-02-26T03:22:38;92481.09;;;5.61;87.64
27643;BME280;15053;48.618;10.024;2024-02-26T03:25:06;92470.31;;;5.59;87.01
27643;BME280;15053;48.618;10.024;2024-02-26T03:27:32;92486.44;;;5.65;87.73
27643;BME280;15053;48.618;10.024;2024-02-26T03:29:59;92478.38;;;5.66;87.12
27643;BME280;15053;48.618;10.024;2024-02-26T03:32:26;92468.81;;;5.67;87.81
27643;BME280;15053;48.618;10.024;2024-02-26T03:34:53;92481.44;;;5.68;87.02
27643;BME280;15053;48.618;10.024;2024-02-26T03:37:21;92487.97;;;5.66;86.74
27643;BME280;15053;48.618;10.024;2024-02-26T03:39:47;92478.69;;;5.65;86.59
27643;BME280;15053;48.618;10.024;2024-02-26T03:42:14;92460.91;;;5.63;87.15
27643;BME280;15053;48.618;10.024;2024-02-26T03:44:40;92471.25;;;5.55;87.03
27643;BME280;15053;48.618;10.024;2024-02-26T03:47:07;92472.56;;;5.52;87.48
27643;BME280;15053;48.618;10.024;2024-02-26T03:49:34;92469.97;;;5.52;87.48
27643;BME280;15053;48.618;10.024;2024-02-26T03:52:01;92448.28;;;5.53;88.00
27643;BME280;15053;48.618;10.024;2024-02-26T03:54:27;92448.28;;;5.53;87.16
27643;BME280;15053;48.618;10.024;2024-02-26T03:56:54;92441.47;;;5.57;87.78
27643;BME280;15053;48.618;10.024;2024-02-26T03:59:20;92438.91;;;5.57;87.58
27643;BME280;15053;48.618;10.024;2024-02-26T04:01:48;92455.88;;;5.58;86.93
27643;BME280;15053;48.618;10.024;2024-02-26T04:04:15;92453.63;;;5.57;87.23
27643;BME280;15053;48.618;10.024;2024-02-26T04:06:46;92460.91;;;5.55;87.41
27643;BME280;15053;48.618;10.024;2024-02-26T04:09:14;92443.44;;;5.52;86.88
27643;BME280;15053;48.618;10.024;2024-02-26T04:11:41;92463.47;;;5.46;87.03
27643;BME280;15053;48.618;10.024;2024-02-26T04:14:09;92476.81;;;5.48;86.90
27643;BME280;15053;48.618;10.024;2024-02-26T04:16:38;92471.44;;;5.36;87.30
27643;BME280;15053;48.618;10.024;2024-02-26T04:19:05;92487.69;;;5.36;87.40
27643;BME280;15053;48.618;10.024;2024-02-26T04:21:31;92496.81;;;5.34;87.05
27643;BME280;15053;48.618;10.024;2024-02-26T04:23:58;92488.16;;;5.30;87.37
27643;BME280;15053;48.618;10.024;2024-02-26T04:26:28;92487.06;;;5.31;87.91
27643;BME280;15053;48.618;10.024;2024-02-26T04:28:55;92463.84;;;5.31;87.57
27643;BME280;15053;48.618;10.024;2024-02-26T04:31:21;92474.31;;;5.26;88.35
27643;BME280;15053;48.618;10.024;2024-02-26T04:33:48;92482.03;;;5.26;88.44
27643;BME280;15053;48.618;10.024;2024-02-26T04:36:15;92468.38;;;5.25;88.28
27643;BME280;15053;48.618;10.024;2024-02-26T04:38:43;92468.19;;;5.22;88.59
27643;BME280;15053;48.618;10.024;2024-02-26T04:41:09;92458.38;;;5.24;88.78
27643;BME280;15053;48.618;10.024;2024-02-26T04:43:37;92454.44;;;5.26;89.15
27643;BME280;15053;48.618;10.024;2024-02-26T04:46:08;92456.69;;;5.28;89.02
27643;BME280;15053;48.618;10.024;2024-02-26T04:48:35;92456.69;;;5.28;89.22
27643;BME280;15053;48.618;10.024;2024-02-26T04:51:02;92479.31;;;5.31;88.52
27643;BME280;15053;48.618;10.024;2024-02-26T04:53:29;92474.16;;;5.31;88.53
27643;BME280;15053;48.618;10.024;2024-02-26T04:55:56;92467.19;;;5.31;88.57
27643;BME280;15053;48.618;10.024;2024-02-26T04:58:22;92468.41;;;5.34;87.97
27643;BME280;15053;48.618;10.024;2024-02-26T05:00:49;92466.28;;;5.36;88.17
27643;BME280;15053;48.618;10.024;2024-02-26T05:03:15;92469.81;;;5.40;89.03
27643;BME280;15053;48.618;10.024;2024-02-26T05:05:43;92481.03;;;5.35;88.66
27643;BME280;15053;48.618;10.024;2024-02-26T05:08:10;92478.44;;;5.35;88.91
27643;BME280;15053;48.618;10.024;2024-02-26T05:10:39;92465.84;;;5.34;88.95
27643;BME280;15053;48.618;10.024;2024-02-26T05:13:07;92468.41;;;5.34;88.37
27643;BME280;15053;48.618;10.024;2024-02-26T05:15:33;92477.69;;;5.35;88.67
27643;BME280;15053;48.618;10.024;2024-02-26T05:18:00;92471.00;;;5.34;88.94
27643;BME280;15053;48.618;10.024;2024-02-26T05:20:27;92468.13;;;5.35;89.60
27643;BME280;15053;48.618;10.024;2024-02-26T05:22:53;92461.28;;;5.40;89.27
27643;BME280;15053;48.618;10.024;2024-02-26T05:25:20;92448.56;;;5.43;88.54
27643;BME280;15053;48.618;10.024;2024-02-26T05:27:46;92447.97;;;5.46;88.39
27643;BME280;15053;48.618;10.024;2024-02-26T05:30:13;92450.84;;;5.45;88.36
27643;BME280;15053;48.618;10.024;2024-02-26T05:32:40;92436.25;;;5.40;87.78
27643;BME280;15053;48.618;10.024;2024-02-26T05:35:07;92434.28;;;5.37;87.58
27643;BME280;15053;48.618;10.024;2024-02-26T05:37:34;92442.31;;;5.35;87.51
27643;BME280;15053;48.618;10.024;2024-02-26T05:40:00;92443.06;;;5.36;87.37
27643;BME280;15053;48.618;10.024;2024-02-26T05:42:27;92443.81;;;5.36;87.42
27643;BME280;15053;48.618;10.024;2024-02-26T05:44:53;92455.50;;;5.34;87.00
27643;BME280;15053;48.618;10.024;2024-02-26T05:47:20;92449.72;;;5.28;87.04
27643;BME280;15053;48.618;10.024;2024-02-26T05:49:46;92462.94;;;5.27;87.49
27643;BME280;15053;48.618;10.024;2024-02-26T05:52:13;92459.13;;;5.24;87.00
27643;BME280;15053;48.618;10.024;2024-02-26T05:54:39;92459.25;;;5.19;87.54
27643;BME280;15053;48.618;10.024;2024-02-26T05:57:06;92468.66;;;5.15;87.57
27643;BME280;15053;48.618;10.024;2024-02-26T05:59:32;92463.94;;;5.17;87.66
27643;BME280;15053;48.618;10.024;2024-02-26T06:01:59;92471.84;;;5.21;88.40
27643;BME280;15053;48.618;10.024;2024-02-26T06:04:25;92485.22;;;5.23;88.01
27643;BME280;15053;48.618;10.024;2024-02-26T06:06:52;92493.25;;;5.21;88.31
27643;BME280;15053;48.618;10.024;2024-02-26T06:09:18;92489.47;;;5.19;88.17
27643;BME280;15053;48.618;10.024;2024-02-26T06:11:45;92496.13;;;5.20;88.21
27643;BME280;15053;48.618;10.024;2024-02-26T06:14:11;92495.53;;;5.23;88.87
27643;BME280;15053;48.618;10.024;2024-02-26T06:16:40;92498.75;;;5.28;88.98
27643;BME280;15053;48.618;10.024;2024-02-26T06:19:07;92496.34;;;5.32;88.99
27643;BME280;15053;48.618;10.024;2024-02-26T06:21:37;92503.00;;;5.33;88.82
27643;BME280;15053;48.618;10.024;2024-02-26T06:24:03;92503.19;;;5.36;88.77
27643;BME280;15053;48.618;10.024;2024-02-26T06:26:30;92510.06;;;5.41;88.92
27643;BME280;15053;48.618;10.024;2024-02-26T06:28:57;92512.78;;;5.45;88.98
27643;BME280;15053;48.618;10.024;2024-02-26T06:31:23;92516.31;;;5.49;88.65
27643;BME280;15053;48.618;10.024;2024-02-26T06:33:50;92503.41;;;5.49;88.30
27643;BME280;15053;48.618;10.024;2024-02-26T06:36:16;92516.44;;;5.52;88.26
27643;BME280;15053;48.618;10.024;2024-02-26T06:38:43;92513.28;;;5.55;88.05
27643;BME280;15053;48.618;10.024;2024-02-26T06:41:09;92520.44;;;5.58;89.03
27643;BME280;15053;48.618;10.024;2024-02-26T06:43:37;92528.78;;;5.55;88.22
27643;BME280;15053;48.618;10.024;2024-02-26T06:46:05;92533.94;;;5.55;87.99
27643;BME280;15053;48.618;10.024;2024-02-26T06:48:32;92536.81;;;5.54;88.25
27643;BME280;15053;48.618;10.024;2024-02-26T06:50:58;92540.63;;;5.56;88.29
27643;BME280;15053;48.618;10.024;2024-02-26T06:53:25;92552.34;;;5.62;88.06
27643;BME280;15053;48.618;10.024;2024-02-26T06:55:52;92546.59;;;5.65;87.92
27643;BME280;15053;48.618;10.024;2024-02-26T06:58:18;92546.13;;;5.63;87.37
27643;BME280;15053;48.618;10.024;2024-02-26T07:00:45;92548.69;;;5.63;87.46
27643;BME280;15053;48.618;10.024;2024-02-26T07:03:12;92548.59;;;5.68;88.70
27643;BME280;15053;48.618;10.024;2024-02-26T07:05:40;92553.75;;;5.68;87.63
27643;BME280;15053;48.618;10.024;2024-02-26T07:08:06;92562.09;;;5.65;88.00
27643;BME280;15053;48.618;10.024;2024-02-26T07:10:33;92562.97;;;5.61;87.99
27643;BME280;15053;48.618;10.024;2024-02-26T07:13:00;92557.81;;;5.61;88.96
27643;BME280;15053;48.618;10.024;2024-02-26T07:15:27;92558.56;;;5.61;88.50
27643;BME280;15053;48.618;10.024;2024-02-26T07:17:54;92540.34;;;5.66;88.24
27643;BME280;15053;48.618;10.024;2024-02-26T07:20:21;92534.78;;;5.73;88.59
27643;BME280;15053;48.618;10.024;2024-02-26T07:22:47;92527.47;;;5.75;88.44
27643;BME280;15053;48.618;10.024;2024-02-26T07:25:14;92533.59;;;5.79;89.31
27643;BME280;15053;48.618;10.024;2024-02-26T07:27:42;92534.34;;;5.79;88.92
27643;BME280;15053;48.618;10.024;2024-02-26T07:30:09;92529.47;;;5.78;88.35
27643;BME280;15053;48.618;10.024;2024-02-26T07:32:36;92538.31;;;5.85;88.15
27643;BME280;15053;48.618;10.024;2024-02-26T07:35:03;92541.84;;;5.89;88.68
27643;BME280;15053;48.618;10.024;2024-02-26T07:37:29;92543.25;;;5.96;88.37
27643;BME280;15053;48.618;10.024;2024-02-26T07:39:56;92550.84;;;6.01;87.98
27643;BME280;15053;48.618;10.024;2024-02-26T07:42:23;92552.25;;;6.07;88.02
27643;BME280;15053;48.618;10.024;2024-02-26T07:44:50;92544.94;;;6.09;87.24
27643;BME280;15053;48.618;10.024;2024-02-26T07:47:17;92544.34;;;6.12;87.54
27643;BME280;15053;48.618;10.024;2024-02-26T07:49:44;92546.63;;;6.22;87.75
27643;BME280;15053;48.618;10.024;2024-02-26T07:52:11;92543.13;;;6.26;87.13
27643;BME280;15053;48.618;10.024;2024-02-26T07:54:37;92545.59;;;6.31;86.87
27643;BME280;15053;48.618;10.024;2024-02-26T07:57:04;92554.72;;;6.37;86.18
27643;BME280;15053;48.618;10.024;2024-02-26T07:59:32;92545.13;;;6.38;86.30
27643;BME280;15053;48.618;10.024;2024-02-26T08:01:58;92553.06;;;6.50;86.10
27643;BME280;15053;48.618;10.024;2024-02-26T08:04:25;92560.06;;;6.58;85.05
27643;BME280;15053;48.618;10.024;2024-02-26T08:06:53;92554.13;;;6.66;85.43
27643;BME280;15053;48.618;10.024;2024-02-26T08:09:19;92567.69;;;6.80;84.52
27643;BME280;15053;48.618;10.024;2024-02-26T08:11:46;92569.53;;;6.88;84.38
27643;BME280;15053;48.618;10.024;2024-02-26T08:14:13;92559.94;;;6.97;83.88
27643;BME280;15053;48.618;10.024;2024-02-26T08:16:40;92569.53;;;7.05;82.78
27643;BME280;15053;48.618;10.024;2024-02-26T08:19:06;92566.16;;;7.13;82.99
27643;BME280;15053;48.618;10.024;2024-02-26T08:21:33;92575.41;;;7.23;83.59
27643;BME280;15053;48.618;10.024;2024-02-26T08:23:59;92578.47;;;7.25;82.29
27643;BME280;15053;48.618;10.024;2024-02-26T08:26:26;92583.78;;;7.29;83.16
27643;BME280;15053;48.618;10.024;2024-02-26T08:28:52;92589.72;;;7.29;82.67
27643;BME280;15053;48.618;10.024;2024-02-26T08:31:21;92585.94;;;7.27;81.98
27643;BME280;15053;48.618;10.024;2024-02-26T08:33:47;92592.50;;;7.24;81.26
27643;BME280;15053;48.618;10.024;2024-02-26T08:36:14;92587.47;;;7.19;81.66
27643;BME280;15053;48.618;10.024;2024-02-26T08:38:40;92595.25;;;7.19;81.15
27643;BME280;15053;48.618;10.024;2024-02-26T08:41:07;92594.75;;;7.26;80.83
27643;BME280;15053;48.618;10.024;2024-02-26T08:43:33;92593.09;;;7.30;81.56
27643;BME280;15053;48.618;10.024;2024-02-26T08:46:00;92600.84;;;7.30;81.14
27643;BME280;15053;48.618;10.024;2024-02-26T08:48:26;92603.91;;;7.32;81.40
27643;BME280;15053;48.618;10.024;2024-02-26T08:50:53;92592.78;;;7.31;81.17
27643;BME280;15053;48.618;10.024;2024-02-26T08:53:20;92594.91;;;7.21;80.33
27643;BME280;15053;48.618;10.024;2024-02-26T08:55:57;92603.59;;;7.25;80.86
27643;BME280;15053;48.618;10.024;2024-02-26T08:58:23;92603.59;;;7.25;81.25
27643;BME280;15053;48.618;10.024;2024-02-26T09:00:50;92602.06;;;7.24;80.87
27643;BME280;15053;48.618;10.024;2024-02-26T09:03:16;92602.25;;;7.19;80.24
27643;BME280;15053;48.618;10.024;2024-02-26T09:05:43;92610.63;;;7.16;80.29
27643;BME280;15053;48.618;10.024;2024-02-26T09:08:09;92613.19;;;7.16;79.87
27643;BME280;15053;48.618;10.024;2024-02-26T09:10:36;92610.44;;;7.12;80.01
27643;BME280;15053;48.618;10.024;2024-02-26T09:13:02;92606.19;;;7.07;79.79
27643;BME280;15053;48.618;10.024;2024-02-26T09:15:29;92608.94;;;7.11;80.34
27643;BME280;15053;48.618;10.024;2024-02-26T09:17:56;92609.84;;;7.15;79.70
27643;BME280;15053;48.618;10.024;2024-02-26T09:20:23;92614.72;;;7.17;79.92
27643;BME280;15053;48.618;10.024;2024-02-26T09:22:50;92608.47;;;7.18;79.27
27643;BME280;15053;48.618;10.024;2024-02-26T09:25:17;92611.66;;;7.23;78.73
27643;BME280;15053;48.618;10.024;2024-02-26T09:27:44;92616.22;;;7.35;78.81
27643;BME280;15053;48.618;10.024;2024-02-26T09:30:11;92616.66;;;7.45;77.99
27643;BME280;15053;48.618;10.024;2024-02-26T09:32:39;92616.38;;;7.47;77.47
27643;BME280;15053;48.618;10.024;2024-02-26T09:35:06;92620.31;;;7.53;77.51
27643;BME280;15053;48.618;10.024;2024-02-26T09:37:33;92616.34;;;7.55;76.81
27643;BME280;15053;48.618;10.024;2024-02-26T09:40:00;92626.69;;;7.64;76.20
27643;BME280;15053;48.618;10.024;2024-02-26T09:42:26;92633.09;;;7.66;75.12
27643;BME280;15053;48.618;10.024;2024-02-26T09:44:54;92629.13;;;7.69;75.32
27643;BME280;15053;48.618;10.024;2024-02-26T09:47:23;92631.69;;;7.78;75.18
27643;BME280;15053;48.618;10.024;2024-02-26T09:49:50;92641.91;;;7.83;73.84
27643;BME280;15053;48.618;10.024;2024-02-26T09:52:19;92642.06;;;7.78;73.78
27643;BME280;15053;48.618;10.024;2024-02-26T09:54:49;92639.00;;;7.84;73.59
27643;BME280;15053;48.618;10.024;2024-02-26T09:57:16;92647.97;;;7.95;73.25
27643;BME280;15053;48.618;10.024;2024-02-26T09:59:44;92637.56;;;8.04;73.01
27643;BME280;15053;48.618;10.024;2024-02-26T10:02:14;92640.22;;;8.24;72.04
27643;BME280;15053;48.618;10.024;2024-02-26T10:04:43;92646.75;;;8.39;72.42
27643;BME280;15053;48.618;10.024;2024-02-26T10:07:16;92642.25;;;8.57;72.00
27643;BME280;15053;48.618;10.024;2024-02-26T10:09:43;92639.75;;;8.69;72.08
27643;BME280;15053;48.618;10.024;2024-02-26T10:12:11;92642.44;;;8.81;71.80
27643;BME280;15053;48.618;10.024;2024-02-26T10:14:38;92634.25;;;8.91;70.93
27643;BME280;15053;48.618;10.024;2024-02-26T10:17:07;92641.03;;;9.04;70.69
27643;BME280;15053;48.618;10.024;2024-02-26T10:19:34;92634.19;;;9.20;69.76
27643;BME280;15053;48.618;10.024;2024-02-26T10:22:04;92635.06;;;9.45;69.88
27643;BME280;15053;48.618;10.024;2024-02-26T10:24:31;92639.41;;;9.74;70.11
27643;BME280;15053;48.618;10.024;2024-02-26T10:26:58;92645.09;;;10.00;68.67
27643;BME280;15053;48.618;10.024;2024-02-26T10:29:25;92642.50;;;10.00;67.38
27643;BME280;15053;48.618;10.024;2024-02-26T10:31:52;92631.78;;;10.01;66.84
27643;BME280;15053;48.618;10.024;2024-02-26T10:34:19;92631.06;;;10.25;66.53
27643;BME280;15053;48.618;10.024;2024-02-26T10:36:46;92625.88;;;10.49;66.69
27643;BME280;15053;48.618;10.024;2024-02-26T10:39:19;92630.88;;;10.79;66.73
27643;BME280;15053;48.618;10.024;2024-02-26T10:41:46;92641.03;;;11.08;65.69
27643;BME280;15053;48.618;10.024;2024-02-26T10:44:13;92646.00;;;11.25;65.12
27643;BME280;15053;48.618;10.024;2024-02-26T10:46:44;92641.41;;;11.34;64.82
27643;BME280;15053;48.618;10.024;2024-02-26T10:49:15;92638.13;;;11.37;62.90
27643;BME280;15053;48.618;10.024;2024-02-26T10:51:55;92632.38;;;11.59;61.92
27643;BME280;15053;48.618;10.024;2024-02-26T10:54:26;92639.50;;;11.87;60.42
27643;BME280;15053;48.618;10.024;2024-02-26T10:56:56;92629.22;;;11.94;59.50
27643;BME280;15053;48.618;10.024;2024-02-26T10:59:24;92625.03;;;12.05;58.66
27643;BME280;15053;48.618;10.024;2024-02-26T11:01:51;92618.31;;;12.19;57.42
27643;BME280;15053;48.618;10.024;2024-02-26T11:04:18;92608.19;;;12.33;55.87
27643;BME280;15053;48.618;10.024;2024-02-26T11:06:45;92610.22;;;12.40;55.00
27643;BME280;15053;48.618;10.024;2024-02-26T11:09:13;92611.81;;;12.44;54.93
27643;BME280;15053;48.618;10.024;2024-02-26T11:11:41;92616.38;;;12.48;54.70
27643;BME280;15053;48.618;10.024;2024-02-26T11:14:08;92611.16;;;12.48;54.81
27643;BME280;15053;48.618;10.024;2024-02-26T11:16:37;92607.19;;;12.54;54.54
27643;BME280;15053;48.618;10.024;2024-02-26T11:19:06;92603.22;;;12.60;54.51
27643;BME280;15053;48.618;10.024;2024-02-26T11:21:35;92610.81;;;12.65;54.55
27643;BME280;15053;48.618;10.024;2024-02-26T11:24:09;92616.03;;;12.65;54.85
27643;BME280;15053;48.618;10.024;2024-02-26T11:26:42;92619.81;;;12.67;53.95
27643;BME280;15053;48.618;10.024;2024-02-26T11:29:14;92618.28;;;12.66;54.52
27643;BME280;15053;48.618;10.024;2024-02-26T11:31:42;92618.72;;;12.68;54.17
27643;BME280;15053;48.618;10.024;2024-02-26T11:34:09;92613.50;;;12.68;54.74
27643;BME280;15053;48.618;10.024;2024-02-26T11:36:36;92620.66;;;12.71;54.69
27643;BME280;15053;48.618;10.024;2024-02-26T11:39:04;92603.31;;;12.63;54.84
27643;BME280;15053;48.618;10.024;2024-02-26T11:41:31;92621.41;;;12.72;55.00
27643;BME280;15053;48.618;10.024;2024-02-26T11:44:00;92621.34;;;12.68;55.45
27643;BME280;15053;48.618;10.024;2024-02-26T11:46:31;92624.78;;;12.57;55.24
27643;BME280;15053;48.618;10.024;2024-02-26T11:49:02;92621.94;;;12.46;54.72
27643;BME280;15053;48.618;10.024;2024-02-26T11:51:34;92631.47;;;12.38;55.34
27643;BME280;15053;48.618;10.024;2024-02-26T11:54:01;92633.91;;;12.31;55.82
27643;BME280;15053;48.618;10.024;2024-02-26T11:56:28;92634.00;;;12.35;55.99
27643;BME280;15053;48.618;10.024;2024-02-26T11:59:00;92633.91;;;12.31;56.52
27643;BME280;15053;48.618;10.024;2024-02-26T12:01:36;92629.19;;;12.37;56.06
27643;BME280;15053;48.618;10.024;2024-02-26T12:04:08;92622.78;;;12.34;56.50
27643;BME280;15053;48.618;10.024;2024-02-26T12:07:02;92631.28;;;12.31;56.59
27643;BME280;15053;48.618;10.024;2024-02-26T12:09:31;92624.47;;;12.27;56.78
27643;BME280;15053;48.618;10.024;2024-02-26T12:11:59;92630.63;;;12.19;57.28
27643;BME280;15053;48.618;10.024;2024-02-26T12:14:27;92633.28;;;12.07;57.77
27643;BME280;15053;48.618;10.024;2024-02-26T12:16:55;92643.47;;;11.96;59.09
27643;BME280;15053;48.618;10.024;2024-02-26T12:19:22;92638.75;;;11.86;59.46
27643;BME280;15053;48.618;10.024;2024-02-26T12:21:52;92641.72;;;11.72;60.12
27643;BME280;15053;48.618;10.024;2024-02-26T12:24:21;92641.09;;;11.63;61.07
27643;BME280;15053;48.618;10.024;2024-02-26T12:26:48;92648.28;;;11.54;61.67
27643;BME280;15053;48.618;10.024;2024-02-26T12:29:15;92650.50;;;11.40;62.13
27643;BME280;15053;48.618;10.024;2024-02-26T12:31:41;92667.03;;;11.32;62.31
27643;BME280;15053;48.618;10.024;2024-02-26T12:34:08;92656.19;;;11.18;62.32
27643;BME280;15053;48.618;10.024;2024-02-26T12:36:36;92665.22;;;11.08;62.69
27643;BME280;15053;48.618;10.024;2024-02-26T12:39:04;92673.16;;;11.00;62.80
27643;BME280;15053;48.618;10.024;2024-02-26T12:41:37;92667.53;;;10.86;62.29
27643;BME280;15053;48.618;10.024;2024-02-26T12:44:04;92669.50;;;10.77;62.49
27643;BME280;15053;48.618;10.024;2024-02-26T12:46:33;92673.28;;;10.67;62.88
27643;BME280;15053;48.618;10.024;2024-02-26T12:48:59;92682.09;;;10.62;62.76
27643;BME280;15053;48.618;10.024;2024-02-26T12:51:26;92677.63;;;10.51;63.15
27643;BME280;15053;48.618;10.024;2024-02-26T12:53:55;92687.28;;;10.50;63.41
27643;BME280;15053;48.618;10.024;2024-02-26T12:56:22;92679.69;;;10.45;63.95
27643;BME280;15053;48.618;10.024;2024-02-26T12:58:50;92689.66;;;10.43;64.10